sensor_id;sensor_type;location;lat;lon;timestamp;temperature;humidity
12720;DHT22;6424;48.520;11.228;2024-03-23T00:54:28;9.00;99.90
12720;DHT22;6424;48.520;11.228;2024-03-23T00:57:13;9.10;99.90
12720;DHT22;6424;48.520;11.228;2024-03-23T00:59:57;9.20;99.90
12720;DHT22;6424;48.520;11.228;2024-03-23T01:02:41;9.20;99.90
12720;DHT22;6424;48.520;11.228;2024-03-23T01:05:25;9.20;99.90
12720;DHT22;6424;48.520;11.228;2024-03-23T01:08:09;9.30;99.90
12720;DHT22;6424;48.520;11.228;2024-03-23T01:10:55;9.30;99.90
12720;DHT22;6424;48.520;11.228;2024-03-23T01:13:39;9.30;99.90
12720;DHT22;6424;48.520;11.228;2024-03-23T01:16:24;9.30;99.90
12720;DHT22;6424;48.520;11.228;2024-03-23T01:19:09;9.20;99.90
12720;DHT22;6424;48.520;11.228;2024-03-23T01:21:53;9.20;99.90
12720;DHT22;6424;48.520;11.228;2024-03-23T01:24:38;9.20;99.90
12720;DHT22;6424;48.520;11.228;2024-03-23T01:27:22;9.30;99.90
12720;DHT22;6424;48.520;11.228;2024-03-23T01:30:07;9.30;99.90
12720;DHT22;6424;48.520;11.228;2024-03-23T01:32:52;9.30;99.90
12720;DHT22;6424;48.520;11.228;2024-03-23T01:35:36;9.30;99.90
12720;DHT22;6424;48.520;11.228;2024-03-23T01:38:20;9.30;99.90
12720;DHT22;6424;48.520;11.228;2024-03-23T01:41:04;9.30;99.90
12720;DHT22;6424;48.520;11.228;2024-03-23T01:43:49;9.30;99.90
12720;DHT22;6424;48.520;11.228;2024-03-23T01:46:34;9.30;99.90
12720;DHT22;6424;48.520;11.228;2024-03-23T01:49:19;9.30;99.90
12720;DHT22;6424;48.520;11.228;2024-03-23T01:52:05;9.40;99.90
12720;DHT22;6424;48.520;11.228;2024-03-23T01:54:49;9.30;99.90
12720;DHT22;6424;48.520;11.228;2024-03-23T01:57:34;9.30;99.90
12720;DHT22;6424;48.520;11.228;2024-03-23T02:00:18;9.20;99.90
12720;DHT22;6424;48.520;11.228;2024-03-23T02:03:03;9.20;99.90
12720;DHT22;6424;48.520;11.228;2024-03-23T02:06:05;9.20;99.90
12720;DHT22;6424;48.520;11.228;2024-03-23T02:08:51;9.20;99.90
12720;DHT22;6424;48.520;11.228;2024-03-23T02:11:36;9.20;99.90
12720;DHT22;6424;48.520;11.228;2024-03-23T02:14:20;9.20;99.90
12720;DHT22;6424;48.520;11.228;2024-03-23T02:17:04;9.20;99.90
12720;DHT22;6424;48.520;11.228;2024-03-23T02:19:48;9.20;99.90
12720;DHT22;6424;48.520;11.228;2024-03-23T02:22:39;9.20;99.90
12720;DHT22;6424;48.520;11.228;2024-03-23T02:25:23;9.20;99.90
12720;DHT22;6424;48.520;11.228;2024-03-23T02:28:08;9.20;99.90
12720;DHT22;6424;48.520;11.228;2024-03-23T02:30:52;9.20;99.90
12720;DHT22;6424;48.520;11.228;2024-03-23T02:33:37;9.30;99.90
12720;DHT22;6424;48.520;11.228;2024-03-23T02:36:22;9.30;99.90
12720;DHT22;6424;48.520;11.228;2024-03-23T02:39:06;9.30;99.90
12720;DHT22;6424;48.520;11.228;2024-03-23T02:41:51;9.30;99.90
12720;DHT22;6424;48.520;11.228;2024-03-23T02:44:35;9.30;99.90
12720;DHT22;6424;48.520;11.228;2024-03-23T02:47:19;9.30;99.90
12720;DHT22;6424;48.520;11.228;2024-03-23T02:50:04;9.30;99.90
12720;DHT22;6424;48.520;11.228;2024-03-23T02:52:48;9.30;99.90
12720;DHT22;6424;48.520;11.228;2024-03-23T02:55:32;9.30;99.90
12720;DHT22;6424;48.520;11.228;2024-03-23T02:58:16;9.30;99.90
12720;DHT22;6424;48.520;11.228;2024-03-23T03:01:00;9.30;99.90
12720;DHT22;6424;48.520;11.228;2024-03-23T03:03:44;9.30;99.90
12720;DHT22;6424;48.520;11.228;2024-03-23T03:06:30;9.40;99.90
12720;DHT22;6424;48.520;11.228;2024-03-23T03:09:15;9.50;99.90
12720;DHT22;6424;48.520;11.228;2024-03-23T03:11:59;9.50;99.90
12720;DHT22;6424;48.520;11.228;2024-03-23T03:14:44;9.60;99.90
12720;DHT22;6424;48.520;11.228;2024-03-23T03:17:28;9.70;99.90
12720;DHT22;6424;48.520;11.228;2024-03-23T03:20:12;9.70;99.90
12720;DHT22;6424;48.520;11.228;2024-03-23T03:22:57;9.70;99.90
12720;DHT22;6424;48.520;11.228;2024-03-23T03:25:42;9.70;99.90
12720;DHT22;6424;48.520;11.228;2024-03-23T03:28:26;9.70;99.90
12720;DHT22;6424;48.520;11.228;2024-03-23T03:31:15;9.70;99.90
12720;DHT22;6424;48.520;11.228;2024-03-23T03:34:00;9.70;99.90
12720;DHT22;6424;48.520;11.228;2024-03-23T03:36:44;9.70;99.90
12720;DHT22;6424;48.520;11.228;2024-03-23T03:39:29;9.70;99.90
12720;DHT22;6424;48.520;11.228;2024-03-23T03:42:13;9.80;99.90
12720;DHT22;6424;48.520;11.228;2024-03-23T03:44:57;9.80;99.90
12720;DHT22;6424;48.520;11.228;2024-03-23T03:47:41;9.90;99.90
12720;DHT22;6424;48.520;11.228;2024-03-23T03:50:25;10.00;99.90
12720;DHT22;6424;48.520;11.228;2024-03-23T03:53:09;10.10;99.90
12720;DHT22;6424;48.520;11.228;2024-03-23T03:55:53;10.20;99.90
12720;DHT22;6424;48.520;11.228;2024-03-23T03:58:38;10.20;99.90
12720;DHT22;6424;48.520;11.228;2024-03-23T04:01:24;10.30;99.90
12720;DHT22;6424;48.520;11.228;2024-03-23T04:04:08;10.40;99.90
12720;DHT22;6424;48.520;11.228;2024-03-23T04:06:59;10.50;99.90
12720;DHT22;6424;48.520;11.228;2024-03-23T04:09:43;10.50;99.90
12720;DHT22;6424;48.520;11.228;2024-03-23T04:12:27;10.50;99.90
12720;DHT22;6424;48.520;11.228;2024-03-23T04:15:12;10.60;99.90
12720;DHT22;6424;48.520;11.228;2024-03-23T04:17:56;10.70;99.90
12720;DHT22;6424;48.520;11.228;2024-03-23T04:20:40;10.70;99.90
12720;DHT22;6424;48.520;11.228;2024-03-23T04:23:25;10.80;99.90
12720;DHT22;6424;48.520;11.228;2024-03-23T04:26:09;10.80;99.90
12720;DHT22;6424;48.520;11.228;2024-03-23T04:28:53;10.80;99.90
12720;DHT22;6424;48.520;11.228;2024-03-23T04:31:38;10.80;99.90
12720;DHT22;6424;48.520;11.228;2024-03-23T04:34:23;10.90;99.90
12720;DHT22;6424;48.520;11.228;2024-03-23T04:37:07;10.90;99.90
12720;DHT22;6424;48.520;11.228;2024-03-23T04:39:51;10.80;99.90
12720;DHT22;6424;48.520;11.228;2024-03-23T04:42:37;10.80;99.90
12720;DHT22;6424;48.520;11.228;2024-03-23T04:45:21;10.80;99.90
12720;DHT22;6424;48.520;11.228;2024-03-23T04:48:06;10.80;99.90
12720;DHT22;6424;48.520;11.228;2024-03-23T04:50:55;10.90;99.90
12720;DHT22;6424;48.520;11.228;2024-03-23T04:53:41;10.90;99.90
12720;DHT22;6424;48.520;11.228;2024-03-23T04:56:25;10.90;99.90
12720;DHT22;6424;48.520;11.228;2024-03-23T04:59:10;10.80;99.90
12720;DHT22;6424;48.520;11.228;2024-03-23T05:01:55;10.80;99.90
12720;DHT22;6424;48.520;11.228;2024-03-23T05:04:40;10.80;99.90
12720;DHT22;6424;48.520;11.228;2024-03-23T05:07:24;10.80;99.90
12720;DHT22;6424;48.520;11.228;2024-03-23T05:10:10;10.80;99.90
12720;DHT22;6424;48.520;11.228;2024-03-23T05:12:55;10.80;99.90
12720;DHT22;6424;48.520;11.228;2024-03-23T05:15:40;10.80;99.90
12720;DHT22;6424;48.520;11.228;2024-03-23T05:18:24;10.80;99.90
12720;DHT22;6424;48.520;11.228;2024-03-23T05:21:10;10.80;99.90
12720;DHT22;6424;48.520;11.228;2024-03-23T05:23:55;10.70;99.90
12720;DHT22;6424;48.520;11.228;2024-03-23T05:26:39;10.70;99.90
12720;DHT22;6424;48.520;11.228;2024-03-23T05:29:23;10.60;99.90
12720;DHT22;6424;48.520;11.228;2024-03-23T05:32:08;10.50;99.90
12720;DHT22;6424;48.520;11.228;2024-03-23T05:34:53;10.40;99.90
12720;DHT22;6424;48.520;11.228;2024-03-23T05:37:40;10.30;99.90
12720;DHT22;6424;48.520;11.228;2024-03-23T05:40:26;10.30;99.90
12720;DHT22;6424;48.520;11.228;2024-03-23T05:43:11;10.30;99.90
12720;DHT22;6424;48.520;11.228;2024-03-23T05:45:55;10.50;99.90
12720;DHT22;6424;48.520;11.228;2024-03-23T05:48:39;11.10;99.90
12720;DHT22;6424;48.520;11.228;2024-03-23T05:51:24;11.70;99.90
12720;DHT22;6424;48.520;11.228;2024-03-23T05:54:08;12.20;99.90
12720;DHT22;6424;48.520;11.228;2024-03-23T05:56:56;12.80;99.90
12720;DHT22;6424;48.520;11.228;2024-03-23T05:59:40;13.40;99.90
12720;DHT22;6424;48.520;11.228;2024-03-23T06:02:24;13.60;99.90
12720;DHT22;6424;48.520;11.228;2024-03-23T06:05:09;13.60;99.90
12720;DHT22;6424;48.520;11.228;2024-03-23T06:07:53;14.10;99.90
12720;DHT22;6424;48.520;11.228;2024-03-23T06:10:37;14.60;99.90
12720;DHT22;6424;48.520;11.228;2024-03-23T06:13:25;15.20;99.90
12720;DHT22;6424;48.520;11.228;2024-03-23T06:16:13;15.70;99.90
12720;DHT22;6424;48.520;11.228;2024-03-23T06:18:58;16.10;99.90
12720;DHT22;6424;48.520;11.228;2024-03-23T06:21:44;16.40;99.90
12720;DHT22;6424;48.520;11.228;2024-03-23T06:24:28;16.70;99.90
12720;DHT22;6424;48.520;11.228;2024-03-23T06:27:12;16.80;99.90
12720;DHT22;6424;48.520;11.228;2024-03-23T06:29:56;16.90;99.90
12720;DHT22;6424;48.520;11.228;2024-03-23T06:32:40;17.00;99.90
12720;DHT22;6424;48.520;11.228;2024-03-23T06:35:24;17.10;99.90
12720;DHT22;6424;48.520;11.228;2024-03-23T06:38:08;17.00;99.30
12720;DHT22;6424;48.520;11.228;2024-03-23T06:40:52;16.70;99.90
12720;DHT22;6424;48.520;11.228;2024-03-23T06:43:36;16.10;99.90
12720;DHT22;6424;48.520;11.228;2024-03-23T06:46:21;15.40;99.90
12720;DHT22;6424;48.520;11.228;2024-03-23T06:49:05;14.70;99.90
12720;DHT22;6424;48.520;11.228;2024-03-23T06:51:50;14.10;99.90
12720;DHT22;6424;48.520;11.228;2024-03-23T06:54:34;13.60;99.90
12720;DHT22;6424;48.520;11.228;2024-03-23T06:57:19;13.20;99.90
12720;DHT22;6424;48.520;11.228;2024-03-23T07:00:03;13.00;99.90
12720;DHT22;6424;48.520;11.228;2024-03-23T07:02:49;12.70;99.90
12720;DHT22;6424;48.520;11.228;2024-03-23T07:05:33;12.50;99.90
12720;DHT22;6424;48.520;11.228;2024-03-23T07:08:18;12.40;99.90
12720;DHT22;6424;48.520;11.228;2024-03-23T07:11:06;12.30;99.90
12720;DHT22;6424;48.520;11.228;2024-03-23T07:13:51;12.20;99.90
12720;DHT22;6424;48.520;11.228;2024-03-23T07:16:36;12.10;99.90
12720;DHT22;6424;48.520;11.228;2024-03-23T07:19:20;11.90;99.90
12720;DHT22;6424;48.520;11.228;2024-03-23T07:22:05;11.90;99.90
12720;DHT22;6424;48.520;11.228;2024-03-23T07:24:49;11.80;99.90
12720;DHT22;6424;48.520;11.228;2024-03-23T07:27:33;11.80;99.90
12720;DHT22;6424;48.520;11.228;2024-03-23T07:30:18;11.70;99.90
12720;DHT22;6424;48.520;11.228;2024-03-23T07:33:02;11.50;99.90
12720;DHT22;6424;48.520;11.228;2024-03-23T07:35:47;11.10;99.90
12720;DHT22;6424;48.520;11.228;2024-03-23T07:38:31;10.60;99.90
12720;DHT22;6424;48.520;11.228;2024-03-23T07:41:20;10.30;99.90
12720;DHT22;6424;48.520;11.228;2024-03-23T07:44:04;10.00;99.90
12720;DHT22;6424;48.520;11.228;2024-03-23T07:46:48;9.80;99.90
12720;DHT22;6424;48.520;11.228;2024-03-23T07:49:32;9.50;99.90
12720;DHT22;6424;48.520;11.228;2024-03-23T07:52:17;9.30;99.90
12720;DHT22;6424;48.520;11.228;2024-03-23T07:55:01;9.20;99.90
12720;DHT22;6424;48.520;11.228;2024-03-23T07:57:45;9.00;99.90
12720;DHT22;6424;48.520;11.228;2024-03-23T08:00:29;9.00;99.90
12720;DHT22;6424;48.520;11.228;2024-03-23T08:03:14;8.90;99.90
12720;DHT22;6424;48.520;11.228;2024-03-23T08:06:10;8.90;99.90
12720;DHT22;6424;48.520;11.228;2024-03-23T08:08:55;8.90;99.90
12720;DHT22;6424;48.520;11.228;2024-03-23T08:11:46;8.90;99.90
12720;DHT22;6424;48.520;11.228;2024-03-23T08:14:31;8.90;99.90
12720;DHT22;6424;48.520;11.228;2024-03-23T08:17:16;8.80;99.90
12720;DHT22;6424;48.520;11.228;2024-03-23T08:20:00;8.80;99.90
12720;DHT22;6424;48.520;11.228;2024-03-23T08:22:45;8.80;99.90
12720;DHT22;6424;48.520;11.228;2024-03-23T08:25:31;8.70;99.90
12720;DHT22;6424;48.520;11.228;2024-03-23T08:28:15;8.80;99.90
12720;DHT22;6424;48.520;11.228;2024-03-23T08:31:08;8.80;99.90
12720;DHT22;6424;48.520;11.228;2024-03-23T08:33:53;8.80;99.90
12720;DHT22;6424;48.520;11.228;2024-03-23T08:36:37;8.90;99.90
12720;DHT22;6424;48.520;11.228;2024-03-23T08:39:22;9.00;99.90
12720;DHT22;6424;48.520;11.228;2024-03-23T08:42:06;9.00;99.90
12720;DHT22;6424;48.520;11.228;2024-03-23T08:44:53;9.00;99.90
12720;DHT22;6424;48.520;11.228;2024-03-23T08:47:37;9.00;99.90
12720;DHT22;6424;48.520;11.228;2024-03-23T08:50:22;9.10;99.90
12720;DHT22;6424;48.520;11.228;2024-03-23T08:53:07;9.10;99.90
12720;DHT22;6424;48.520;11.228;2024-03-23T08:55:55;9.10;99.90
12720;DHT22;6424;48.520;11.228;2024-03-23T08:58:40;9.10;99.90
12720;DHT22;6424;48.520;11.228;2024-03-23T09:01:24;9.20;99.90
12720;DHT22;6424;48.520;11.228;2024-03-23T09:04:09;9.30;99.90
12720;DHT22;6424;48.520;11.228;2024-03-23T09:06:54;9.50;99.90
12720;DHT22;6424;48.520;11.228;2024-03-23T09:09:39;9.70;99.90
12720;DHT22;6424;48.520;11.228;2024-03-23T09:12:24;9.80;99.90
12720;DHT22;6424;48.520;11.228;2024-03-23T09:15:08;9.80;99.90
12720;DHT22;6424;48.520;11.228;2024-03-23T09:17:53;9.60;99.90
12720;DHT22;6424;48.520;11.228;2024-03-23T09:20:37;9.40;99.90
12720;DHT22;6424;48.520;11.228;2024-03-23T09:23:21;9.30;99.90
12720;DHT22;6424;48.520;11.228;2024-03-23T09:26:05;9.40;99.90
12720;DHT22;6424;48.520;11.228;2024-03-23T09:28:53;9.40;99.90
12720;DHT22;6424;48.520;11.228;2024-03-23T09:31:37;9.40;99.90
12720;DHT22;6424;48.520;11.228;2024-03-23T09:34:22;9.40;99.90
12720;DHT22;6424;48.520;11.228;2024-03-23T09:37:06;9.40;99.90
12720;DHT22;6424;48.520;11.228;2024-03-23T09:39:51;9.40;99.90
12720;DHT22;6424;48.520;11.228;2024-03-23T09:42:36;9.50;99.90
12720;DHT22;6424;48.520;11.228;2024-03-23T09:45:23;9.50;99.90
12720;DHT22;6424;48.520;11.228;2024-03-23T09:48:10;9.40;99.90
12720;DHT22;6424;48.520;11.228;2024-03-23T09:50:55;9.40;99.90
12720;DHT22;6424;48.520;11.228;2024-03-23T09:53:39;9.20;99.90
12720;DHT22;6424;48.520;11.228;2024-03-23T09:56:24;9.30;99.90
12720;DHT22;6424;48.520;11.228;2024-03-23T09:59:08;9.30;99.90
12720;DHT22;6424;48.520;11.228;2024-03-23T10:01:54;9.30;99.90
12720;DHT22;6424;48.520;11.228;2024-03-23T10:04:41;9.30;99.90
12720;DHT22;6424;48.520;11.228;2024-03-23T10:07:26;9.30;99.90
12720;DHT22;6424;48.520;11.228;2024-03-23T10:10:15;9.30;99.90
12720;DHT22;6424;48.520;11.228;2024-03-23T10:12:59;9.20;99.90
12720;DHT22;6424;48.520;11.228;2024-03-23T10:15:44;9.10;99.90
12720;DHT22;6424;48.520;11.228;2024-03-23T10:18:28;9.00;99.90
12720;DHT22;6424;48.520;11.228;2024-03-23T10:21:14;8.80;99.90
12720;DHT22;6424;48.520;11.228;2024-03-23T10:24:08;8.70;99.90
12720;DHT22;6424;48.520;11.228;2024-03-23T10:26:56;8.50;99.90
12720;DHT22;6424;48.520;11.228;2024-03-23T10:29:40;8.50;99.90
12720;DHT22;6424;48.520;11.228;2024-03-23T10:32:25;8.40;99.90
12720;DHT22;6424;48.520;11.228;2024-03-23T10:35:18;8.40;99.90
12720;DHT22;6424;48.520;11.228;2024-03-23T10:38:05;8.30;99.90
12720;DHT22;6424;48.520;11.228;2024-03-23T10:40:50;8.30;99.90
12720;DHT22;6424;48.520;11.228;2024-03-23T10:43:36;8.30;99.90
12720;DHT22;6424;48.520;11.228;2024-03-23T10:46:20;8.20;99.90
12720;DHT22;6424;48.520;11.228;2024-03-23T10:49:04;8.10;99.90
12720;DHT22;6424;48.520;11.228;2024-03-23T10:51:49;8.10;99.90
12720;DHT22;6424;48.520;11.228;2024-03-23T10:54:33;8.20;99.90
12720;DHT22;6424;48.520;11.228;2024-03-23T10:57:21;8.30;99.90
12720;DHT22;6424;48.520;11.228;2024-03-23T11:00:08;8.30;99.90
12720;DHT22;6424;48.520;11.228;2024-03-23T11:02:53;8.30;99.90
12720;DHT22;6424;48.520;11.228;2024-03-23T11:05:37;8.40;99.90
12720;DHT22;6424;48.520;11.228;2024-03-23T11:08:32;8.50;99.90
12720;DHT22;6424;48.520;11.228;2024-03-23T11:11:21;8.60;99.90
12720;DHT22;6424;48.520;11.228;2024-03-23T11:14:22;8.70;99.90
12720;DHT22;6424;48.520;11.228;2024-03-23T11:17:10;8.90;99.90
12720;DHT22;6424;48.520;11.228;2024-03-23T11:19:59;8.90;99.90
12720;DHT22;6424;48.520;11.228;2024-03-23T11:22:45;8.80;99.90
12720;DHT22;6424;48.520;11.228;2024-03-23T11:25:33;8.80;99.90
12720;DHT22;6424;48.520;11.228;2024-03-23T11:28:18;8.60;99.90
12720;DHT22;6424;48.520;11.228;2024-03-23T11:31:09;8.50;99.90
12720;DHT22;6424;48.520;11.228;2024-03-23T11:34:05;8.50;99.90
12720;DHT22;6424;48.520;11.228;2024-03-23T11:36:50;8.50;99.90
12720;DHT22;6424;48.520;11.228;2024-03-23T11:39:37;8.50;99.90
12720;DHT22;6424;48.520;11.228;2024-03-23T11:42:21;8.50;99.90
12720;DHT22;6424;48.520;11.228;2024-03-23T11:45:09;8.40;99.90
12720;DHT22;6424;48.520;11.228;2024-03-23T11:48:10;8.40;99.90
12720;DHT22;6424;48.520;11.228;2024-03-23T11:50:56;8.50;99.90
12720;DHT22;6424;48.520;11.228;2024-03-23T11:53:41;8.70;99.90
12720;DHT22;6424;48.520;11.228;2024-03-23T11:56:25;8.80;99.90
12720;DHT22;6424;48.520;11.228;2024-03-23T11:59:09;8.80;99.90
12720;DHT22;6424;48.520;11.228;2024-03-23T12:01:55;8.80;99.90
12720;DHT22;6424;48.520;11.228;2024-03-23T12:04:41;8.80;99.90
12720;DHT22;6424;48.520;11.228;2024-03-23T12:07:26;8.90;99.90
12720;DHT22;6424;48.520;11.228;2024-03-23T12:10:10;8.80;99.90
12720;DHT22;6424;48.520;11.228;2024-03-23T12:13:01;8.80;99.90
12720;DHT22;6424;48.520;11.228;2024-03-23T12:15:47;8.70;99.90
12720;DHT22;6424;48.520;11.228;2024-03-23T12:18:31;8.80;99.90
12720;DHT22;6424;48.520;11.228;2024-03-23T12:21:16;8.80;99.90
12720;DHT22;6424;48.520;11.228;2024-03-23T12:24:01;9.10;99.90
12720;DHT22;6424;48.520;11.228;2024-03-23T12:26:45;9.30;99.90
12720;DHT22;6424;48.520;11.228;2024-03-23T12:29:32;9.30;99.90
12720;DHT22;6424;48.520;11.228;2024-03-23T12:32:16;9.20;99.90
12720;DHT22;6424;48.520;11.228;2024-03-23T12:35:01;9.00;99.90
12720;DHT22;6424;48.520;11.228;2024-03-23T12:37:45;8.90;99.90
12720;DHT22;6424;48.520;11.228;2024-03-23T12:40:29;9.00;99.90
12720;DHT22;6424;48.520;11.228;2024-03-23T12:43:14;9.00;99.90
12720;DHT22;6424;48.520;11.228;2024-03-23T12:45:58;9.10;99.90
12720;DHT22;6424;48.520;11.228;2024-03-23T12:48:44;9.10;99.90
12720;DHT22;6424;48.520;11.228;2024-03-23T12:51:29;9.10;99.90
12720;DHT22;6424;48.520;11.228;2024-03-23T12:54:13;9.20;99.90
12720;DHT22;6424;48.520;11.228;2024-03-23T12:56:57;9.20;99.90
12720;DHT22;6424;48.520;11.228;2024-03-23T12:59:42;9.20;99.90
12720;DHT22;6424;48.520;11.228;2024-03-23T13:02:26;9.10;99.90
12720;DHT22;6424;48.520;11.228;2024-03-23T13:05:10;9.00;99.90
12720;DHT22;6424;48.520;11.228;2024-03-23T13:07:54;8.80;99.90
12720;DHT22;6424;48.520;11.228;2024-03-23T13:10:38;8.80;99.90
12720;DHT22;6424;48.520;11.228;2024-03-23T13:13:23;8.70;99.90
12720;DHT22;6424;48.520;11.228;2024-03-23T13:16:08;8.70;99.90
12720;DHT22;6424;48.520;11.228;2024-03-23T13:18:52;8.70;99.90
12720;DHT22;6424;48.520;11.228;2024-03-23T13:21:37;8.60;99.90
12720;DHT22;6424;48.520;11.228;2024-03-23T13:24:25;8.60;99.90
12720;DHT22;6424;48.520;11.228;2024-03-23T13:27:10;8.20;99.90
12720;DHT22;6424;48.520;11.228;2024-03-23T13:29:54;7.60;99.90
12720;DHT22;6424;48.520;11.228;2024-03-23T13:32:38;7.20;99.90
12720;DHT22;6424;48.520;11.228;2024-03-23T13:35:23;7.00;99.90
12720;DHT22;6424;48.520;11.228;2024-03-23T13:38:08;6.80;99.90
12720;DHT22;6424;48.520;11.228;2024-03-23T13:40:59;6.70;99.90
12720;DHT22;6424;48.520;11.228;2024-03-23T13:43:43;6.50;99.90
12720;DHT22;6424;48.520;11.228;2024-03-23T13:46:28;6.40;99.90
12720;DHT22;6424;48.520;11.228;2024-03-23T13:49:29;6.20;99.90
12720;DHT22;6424;48.520;11.228;2024-03-23T13:52:14;6.10;99.90
12720;DHT22;6424;48.520;11.228;2024-03-23T13:54:58;6.10;99.90
12720;DHT22;6424;48.520;11.228;2024-03-23T13:57:42;6.10;99.90
12720;DHT22;6424;48.520;11.228;2024-03-23T14:00:26;6.10;99.90
12720;DHT22;6424;48.520;11.228;2024-03-23T14:03:12;6.10;99.90
12720;DHT22;6424;48.520;11.228;2024-03-23T14:06:00;6.10;99.90
12720;DHT22;6424;48.520;11.228;2024-03-23T14:08:49;6.20;99.90
12720;DHT22;6424;48.520;11.228;2024-03-23T14:11:35;6.20;99.90
12720;DHT22;6424;48.520;11.228;2024-03-23T14:14:21;6.30;99.90
12720;DHT22;6424;48.520;11.228;2024-03-23T14:17:06;6.40;99.90
12720;DHT22;6424;48.520;11.228;2024-03-23T14:19:50;6.40;99.90
12720;DHT22;6424;48.520;11.228;2024-03-23T14:22:34;6.50;99.90
12720;DHT22;6424;48.520;11.228;2024-03-23T14:25:18;6.70;99.90
12720;DHT22;6424;48.520;11.228;2024-03-23T14:28:03;6.80;99.90
12720;DHT22;6424;48.520;11.228;2024-03-23T14:30:48;7.00;99.90
12720;DHT22;6424;48.520;11.228;2024-03-23T14:33:32;7.10;99.90
12720;DHT22;6424;48.520;11.228;2024-03-23T14:36:18;7.20;99.90
12720;DHT22;6424;48.520;11.228;2024-03-23T14:39:02;7.40;99.90
12720;DHT22;6424;48.520;11.228;2024-03-23T14:41:47;7.40;99.90
12720;DHT22;6424;48.520;11.228;2024-03-23T14:44:31;7.60;99.90
12720;DHT22;6424;48.520;11.228;2024-03-23T14:47:15;7.70;99.90
12720;DHT22;6424;48.520;11.228;2024-03-23T14:50:01;7.70;99.90
12720;DHT22;6424;48.520;11.228;2024-03-23T14:52:46;7.70;99.90
12720;DHT22;6424;48.520;11.228;2024-03-23T14:55:31;7.70;99.90
12720;DHT22;6424;48.520;11.228;2024-03-23T14:58:15;7.90;99.90
12720;DHT22;6424;48.520;11.228;2024-03-23T15:01:03;8.00;99.90
12720;DHT22;6424;48.520;11.228;2024-03-23T15:03:48;8.20;99.90
12720;DHT22;6424;48.520;11.228;2024-03-23T15:06:32;8.30;99.90
12720;DHT22;6424;48.520;11.228;2024-03-23T15:09:17;8.30;99.90
12720;DHT22;6424;48.520;11.228;2024-03-23T15:12:02;8.30;99.90
12720;DHT22;6424;48.520;11.228;2024-03-23T15:14:46;8.20;99.90
12720;DHT22;6424;48.520;11.228;2024-03-23T15:17:31;8.20;99.90
12720;DHT22;6424;48.520;11.228;2024-03-23T15:20:18;8.30;99.90
12720;DHT22;6424;48.520;11.228;2024-03-23T15:23:03;8.40;99.90
12720;DHT22;6424;48.520;11.228;2024-03-23T15:25:57;8.40;99.90
12720;DHT22;6424;48.520;11.228;2024-03-23T15:28:41;8.40;99.90
12720;DHT22;6424;48.520;11.228;2024-03-23T15:31:27;8.30;99.90
12720;DHT22;6424;48.520;11.228;2024-03-23T15:34:13;8.30;99.90
12720;DHT22;6424;48.520;11.228;2024-03-23T15:36:57;8.30;99.90
12720;DHT22;6424;48.520;11.228;2024-03-23T15:39:41;8.30;99.90
12720;DHT22;6424;48.520;11.228;2024-03-23T15:42:25;8.40;99.90
12720;DHT22;6424;48.520;11.228;2024-03-23T15:45:09;8.40;99.90
12720;DHT22;6424;48.520;11.228;2024-03-23T15:47:53;8.40;99.90
12720;DHT22;6424;48.520;11.228;2024-03-23T15:50:38;8.30;99.90
12720;DHT22;6424;48.520;11.228;2024-03-23T15:53:22;8.20;99.90
12720;DHT22;6424;48.520;11.228;2024-03-23T15:56:07;8.20;99.90
12720;DHT22;6424;48.520;11.228;2024-03-23T15:58:51;8.10;99.90
12720;DHT22;6424;48.520;11.228;2024-03-23T16:01:36;8.00;99.90
12720;DHT22;6424;48.520;11.228;2024-03-23T16:04:22;7.90;99.90
12720;DHT22;6424;48.520;11.228;2024-03-23T16:07:06;7.90;99.90
12720;DHT22;6424;48.520;11.228;2024-03-23T16:09:50;7.80;99.90
12720;DHT22;6424;48.520;11.228;2024-03-23T16:12:34;7.70;99.90
12720;DHT22;6424;48.520;11.228;2024-03-23T16:15:18;7.70;99.90
12720;DHT22;6424;48.520;11.228;2024-03-23T16:18:03;7.60;99.90
12720;DHT22;6424;48.520;11.228;2024-03-23T16:20:57;7.60;99.90
12720;DHT22;6424;48.520;11.228;2024-03-23T16:23:41;7.50;99.90
12720;DHT22;6424;48.520;11.228;2024-03-23T16:26:28;7.40;99.90
12720;DHT22;6424;48.520;11.228;2024-03-23T16:29:12;7.30;99.90
12720;DHT22;6424;48.520;11.228;2024-03-23T16:31:57;7.30;99.90
12720;DHT22;6424;48.520;11.228;2024-03-23T16:34:41;7.30;99.90
12720;DHT22;6424;48.520;11.228;2024-03-23T16:37:25;7.20;99.90
12720;DHT22;6424;48.520;11.228;2024-03-23T16:40:10;7.20;99.90
12720;DHT22;6424;48.520;11.228;2024-03-23T16:42:55;7.10;99.90
12720;DHT22;6424;48.520;11.228;2024-03-23T16:45:39;7.10;99.90
12720;DHT22;6424;48.520;11.228;2024-03-23T16:48:24;7.00;99.90
12720;DHT22;6424;48.520;11.228;2024-03-23T16:51:10;6.60;99.90
12720;DHT22;6424;48.520;11.228;2024-03-23T16:53:55;6.30;99.90
12720;DHT22;6424;48.520;11.228;2024-03-23T16:56:43;6.10;99.90
12720;DHT22;6424;48.520;11.228;2024-03-23T16:59:28;6.00;99.90
12720;DHT22;6424;48.520;11.228;2024-03-23T17:02:13;5.90;99.90
12720;DHT22;6424;48.520;11.228;2024-03-23T17:04:57;5.70;99.90
12720;DHT22;6424;48.520;11.228;2024-03-23T17:07:41;5.60;99.90
12720;DHT22;6424;48.520;11.228;2024-03-23T17:10:28;5.50;99.90
12720;DHT22;6424;48.520;11.228;2024-03-23T17:13:13;5.30;99.90
12720;DHT22;6424;48.520;11.228;2024-03-23T17:15:58;5.30;99.90
12720;DHT22;6424;48.520;11.228;2024-03-23T17:18:42;5.20;99.90
12720;DHT22;6424;48.520;11.228;2024-03-23T17:21:27;5.20;99.90
12720;DHT22;6424;48.520;11.228;2024-03-23T17:24:11;5.20;99.90
12720;DHT22;6424;48.520;11.228;2024-03-23T17:26:56;5.20;99.90
12720;DHT22;6424;48.520;11.228;2024-03-23T17:29:40;5.20;99.90
12720;DHT22;6424;48.520;11.228;2024-03-23T17:32:24;5.30;99.90
12720;DHT22;6424;48.520;11.228;2024-03-23T17:35:09;5.30;99.90
12720;DHT22;6424;48.520;11.228;2024-03-23T17:37:53;5.30;99.90
12720;DHT22;6424;48.520;11.228;2024-03-23T17:40:37;5.20;99.90
12720;DHT22;6424;48.520;11.228;2024-03-23T17:43:22;5.20;99.90
12720;DHT22;6424;48.520;11.228;2024-03-23T17:46:06;5.20;99.90
12720;DHT22;6424;48.520;11.228;2024-03-23T17:48:51;5.20;99.90
12720;DHT22;6424;48.520;11.228;2024-03-23T17:51:36;5.20;99.90
12720;DHT22;6424;48.520;11.228;2024-03-23T17:54:20;5.20;99.90
12720;DHT22;6424;48.520;11.228;2024-03-23T17:57:06;5.20;99.90
12720;DHT22;6424;48.520;11.228;2024-03-23T17:59:50;5.20;99.90
12720;DHT22;6424;48.520;11.228;2024-03-23T18:02:35;5.20;99.90
12720;DHT22;6424;48.520;11.228;2024-03-23T18:05:19;5.20;99.90
12720;DHT22;6424;48.520;11.228;2024-03-23T18:08:05;5.20;99.90
12720;DHT22;6424;48.520;11.228;2024-03-23T18:10:50;5.10;99.90
12720;DHT22;6424;48.520;11.228;2024-03-23T18:13:34;5.10;99.90
12720;DHT22;6424;48.520;11.228;2024-03-23T18:16:18;5.00;99.90
12720;DHT22;6424;48.520;11.228;2024-03-23T18:19:03;5.00;99.90
12720;DHT22;6424;48.520;11.228;2024-03-23T18:21:49;5.00;99.90
12720;DHT22;6424;48.520;11.228;2024-03-23T18:24:34;4.90;99.90
12720;DHT22;6424;48.520;11.228;2024-03-23T18:27:18;4.80;99.90
12720;DHT22;6424;48.520;11.228;2024-03-23T18:30:03;4.70;99.90